Time;durP1;ratioP1;P1;durP2;ratioP2;P2;SDS_P1;SDS_P2;PMS_P1;PMS_P2;Temp;Humidity;BMP_temperature;BMP_pressure;BME280_temperature;BME280_humidity;BME280_pressure;Samples;Min_cycle;Max_cycle;Signal;HPM_P1;HPM_P2
2024/01/02 00:02:12;;;;;;;1.08;0.30;;;;;;;0.02;66.52;91148.91;5029050;28;20380;-54
2024/01/02 00:04:37;;;;;;;1.55;0.50;;;;;;;-0.09;66.53;91143.28;5013986;28;20041;-55
2024/01/02 00:07:03;;;;;;;1.45;0.40;;;;;;;-0.07;66.24;91147.09;5021304;28;20026;-56
2024/01/02 00:09:28;;;;;;;0.98;0.50;;;;;;;-0.05;66.42;91146.78;5018173;28;20426;-54
2024/01/02 00:11:54;;;;;;;0.90;0.40;;;;;;;-0.13;66.51;91142.41;5021869;28;20034;-54
2024/01/02 00:14:20;;;;;;;1.02;0.50;;;;;;;-0.05;66.41;91139.00;5027680;28;20028;-53
2024/01/02 00:16:45;;;;;;;1.38;0.32;;;;;;;-0.14;66.45;91138.28;5017108;28;20038;-53
2024/01/02 00:19:11;;;;;;;3.53;0.52;;;;;;;-0.14;66.52;91141.63;5012949;28;20038;-53
2024/01/02 00:21:36;;;;;;;1.20;0.30;;;;;;;-0.11;66.21;91125.41;5013696;28;20068;-53
2024/01/02 00:24:03;;;;;;;1.45;0.60;;;;;;;-0.08;66.34;91121.44;5007959;28;20033;-53
2024/01/02 00:26:29;;;;;;;1.38;0.52;;;;;;;-0.17;66.17;91115.53;5014024;28;20045;-53
2024/01/02 00:28:54;;;;;;;1.08;0.40;;;;;;;-0.20;66.37;91111.72;5021224;28;20038;-53
2024/01/02 00:31:20;;;;;;;1.13;0.52;;;;;;;-0.24;67.38;91116.03;5008305;28;20022;-53
2024/01/02 00:33:45;;;;;;;1.13;0.43;;;;;;;-0.41;67.38;91114.25;5019699;28;20038;-53
2024/01/02 00:36:11;;;;;;;0.98;0.50;;;;;;;-0.43;67.50;91111.19;5021293;28;20029;-53
2024/01/02 00:38:38;;;;;;;2.05;0.47;;;;;;;-0.52;66.91;91098.22;5012937;28;20034;-53
2024/01/02 00:41:04;;;;;;;1.38;0.43;;;;;;;-0.55;67.17;91096.25;5019746;28;20045;-53
2024/01/02 00:43:30;;;;;;;0.65;0.25;;;;;;;-0.56;67.39;91094.75;5015642;28;20031;-53
2024/01/02 00:45:56;;;;;;;0.85;0.40;;;;;;;-0.52;67.30;91093.03;5012855;28;20454;-53
2024/01/02 00:48:22;;;;;;;1.65;0.52;;;;;;;-0.63;67.75;91089.28;5020975;28;20033;-54
2024/01/02 00:50:47;;;;;;;0.68;0.30;;;;;;;-0.52;67.44;91087.09;5021792;28;20038;-53
2024/01/02 00:53:13;;;;;;;1.17;0.40;;;;;;;-0.52;67.34;91087.09;5028416;28;20030;-53
2024/01/02 00:55:39;;;;;;;0.47;0.28;;;;;;;-0.50;66.89;91079.75;5012190;28;20091;-53
2024/01/02 00:58:04;;;;;;;1.05;0.40;;;;;;;-0.47;66.86;91073.94;5016119;28;20075;-53
2024/01/02 01:00:30;;;;;;;1.52;0.50;;;;;;;-0.54;67.13;91064.03;5017276;28;20018;-53
2024/01/02 01:02:55;;;;;;;1.33;0.50;;;;;;;-0.57;67.17;91054.28;5028853;28;20132;-53
2024/01/02 01:05:21;;;;;;;2.33;0.50;;;;;;;-0.54;66.75;91056.25;5012571;28;20025;-53
2024/01/02 01:07:46;;;;;;;1.00;0.50;;;;;;;-0.49;66.90;91058.66;5009195;28;20591;-53
2024/01/02 01:10:12;;;;;;;0.75;0.40;;;;;;;-0.45;66.71;91051.00;5023633;28;20514;-53
2024/01/02 01:12:38;;;;;;;1.60;0.60;;;;;;;-0.45;66.76;91058.81;5008287;28;20045;-53
2024/01/02 01:15:04;;;;;;;0.88;0.30;;;;;;;-0.42;66.45;91052.19;5011880;28;20113;-53
2024/01/02 01:17:30;;;;;;;0.75;0.40;;;;;;;-0.45;66.92;91056.22;5011519;28;20030;-53
2024/01/02 01:19:56;;;;;;;1.23;0.47;;;;;;;-0.47;66.92;91053.16;5035821;28;20092;-53
2024/01/02 01:22:23;;;;;;;2.17;0.30;;;;;;;-0.47;67.07;91053.16;5022010;28;20069;-53
2024/01/02 01:24:48;;;;;;;2.65;0.40;;;;;;;-0.43;66.63;91046.25;5009168;28;20052;-53
2024/01/02 01:27:14;;;;;;;0.82;0.30;;;;;;;-0.45;66.55;91040.63;5015904;28;20470;-53
2024/01/02 01:29:40;;;;;;;0.40;0.20;;;;;;;-0.47;66.46;91042.75;5011260;28;20478;-53
2024/01/02 01:32:05;;;;;;;0.68;0.30;;;;;;;-0.51;66.47;91040.03;5019725;28;20494;-53
2024/01/02 01:34:31;;;;;;;1.67;0.30;;;;;;;-0.55;66.85;91039.13;5024782;28;20037;-53
2024/01/02 01:36:57;;;;;;;1.88;0.38;;;;;;;-0.62;66.84;91043.31;5014737;28;20442;-53
2024/01/02 01:39:22;;;;;;;1.10;0.32;;;;;;;-0.61;67.13;91037.78;5018079;28;20089;-53
2024/01/02 01:41:48;;;;;;;0.60;0.30;;;;;;;-0.64;67.13;91035.81;4991477;28;20088;-53
2024/01/02 01:44:13;;;;;;;1.58;0.40;;;;;;;-0.57;66.41;91038.69;5023938;28;20033;-53
2024/01/02 01:46:40;;;;;;;0.93;0.40;;;;;;;-0.63;66.57;91037.34;5015930;28;20027;-53
2024/01/02 01:49:07;;;;;;;1.40;0.30;;;;;;;-0.64;66.42;91029.84;5030189;28;20044;-53
2024/01/02 01:51:34;;;;;;;0.90;0.30;;;;;;;-0.64;66.50;91025.41;5029975;28;20032;-53
2024/01/02 01:54:04;;;;;;;0.77;0.38;;;;;;;-0.69;66.76;91023.03;5022438;28;20026;-53
2024/01/02 01:56:30;;;;;;;0.65;0.30;;;;;;;-0.70;67.05;91029.28;5004847;28;20037;-53
2024/01/02 01:58:56;;;;;;;0.52;0.30;;;;;;;-0.64;66.66;91020.22;5026733;28;20036;-53
2024/01/02 02:01:22;;;;;;;0.73;0.30;;;;;;;-0.61;66.54;91018.84;5015202;28;20010;-53
2024/01/02 02:03:49;;;;;;;1.30;0.40;;;;;;;-0.60;66.75;91022.94;5002007;28;20034;-53
2024/01/02 02:06:15;;;;;;;0.88;0.40;;;;;;;-0.62;66.26;91014.72;5010126;28;20045;-53
2024/01/02 02:08:41;;;;;;;0.55;0.32;;;;;;;-0.60;66.09;91021.13;5011419;28;20040;-53
2024/01/02 02:11:08;;;;;;;0.60;0.30;;;;;;;-0.63;66.63;91018.38;5013987;28;20053;-53
2024/01/02 02:13:35;;;;;;;0.40;0.20;;;;;;;-0.62;66.48;91015.50;5016680;28;20025;-53
2024/01/02 02:16:00;;;;;;;2.20;0.30;;;;;;;-0.57;66.20;91009.34;5017093;28;20030;-53
2024/01/02 02:18:26;;;;;;;0.22;0.20;;;;;;;-0.56;66.00;91009.03;5009763;28;20116;-53
2024/01/02 02:20:55;;;;;;;0.55;0.30;;;;;;;-0.51;65.65;91006.28;5004440;28;20454;-56
2024/01/02 02:23:21;;;;;;;95.88;38.33;;;;;;;-0.38;65.96;91001.16;5014389;28;20029;-55
2024/01/02 02:25:46;;;;;;;7.15;2.33;;;;;;;-0.30;65.64;90995.91;5014466;28;20505;-53
2024/01/02 02:28:12;;;;;;;2.00;0.75;;;;;;;-0.34;65.58;90991.63;5019083;28;20653;-53
2024/01/02 02:30:38;;;;;;;1.58;0.30;;;;;;;-0.38;65.31;91001.16;5017732;28;20040;-53
2024/01/02 02:33:03;;;;;;;2.38;0.40;;;;;;;-0.42;65.07;90992.44;5029081;28;20056;-53
2024/01/02 02:35:29;;;;;;;1.48;0.35;;;;;;;-0.38;65.17;90990.75;5010931;28;20018;-53
2024/01/02 02:37:54;;;;;;;1.00;0.30;;;;;;;-0.31;63.41;90985.81;5006635;28;20076;-53
2024/01/02 02:40:20;;;;;;;0.65;0.32;;;;;;;-0.27;63.94;90986.69;5022816;28;20075;-53
2024/01/02 02:42:46;;;;;;;0.75;0.30;;;;;;;-0.26;64.02;90976.00;5009720;28;20033;-53
2024/01/02 02:45:12;;;;;;;0.57;0.35;;;;;;;-0.33;63.87;90980.16;5019450;28;20042;-53
2024/01/02 02:47:37;;;;;;;0.65;0.20;;;;;;;-0.40;63.87;90978.06;5022129;28;20032;-53
2024/01/02 02:50:05;;;;;;;1.45;0.22;;;;;;;-0.36;63.38;90986.00;5029212;28;20116;-53
2024/01/02 02:52:32;;;;;;;0.30;0.17;;;;;;;-0.37;64.25;90976.69;5006808;28;20353;-53
2024/01/02 02:54:58;;;;;;;0.68;0.30;;;;;;;-0.38;64.24;90969.97;5015209;28;20049;-53
2024/01/02 02:57:24;;;;;;;0.35;0.15;;;;;;;-0.35;63.45;90970.09;5019575;28;20018;-53
2024/01/02 02:59:50;;;;;;;0.47;0.25;;;;;;;-0.27;63.22;90965.91;5022476;28;20083;-53
2024/01/02 03:02:16;;;;;;;0.03;0.03;;;;;;;-0.23;63.59;90961.63;5015258;28;20037;-53
2024/01/02 03:04:42;;;;;;;0.35;0.20;;;;;;;-0.18;63.36;90955.44;5026335;28;20120;-53
2024/01/02 03:07:09;;;;;;;0.90;0.20;;;;;;;-0.18;63.42;90958.03;5019116;28;20034;-53
2024/01/02 03:09:35;;;;;;;2.28;0.32;;;;;;;-0.14;63.13;90954.50;5020617;28;20029;-53
2024/01/02 03:12:00;;;;;;;1.00;0.32;;;;;;;-0.11;63.75;90951.28;5023931;28;20030;-53
2024/01/02 03:14:26;;;;;;;0.75;0.20;;;;;;;-0.06;64.01;90947.72;5025568;28;20049;-53
2024/01/02 03:16:52;;;;;;;1.38;0.35;;;;;;;-0.06;63.58;90945.88;5010947;28;20038;-53
2024/01/02 03:19:17;;;;;;;0.45;0.30;;;;;;;-0.04;64.25;90937.75;5017801;28;20091;-53
2024/01/02 03:21:43;;;;;;;0.35;0.20;;;;;;;-0.04;63.50;90938.50;5034345;28;20063;-53
2024/01/02 03:24:08;;;;;;;0.70;0.30;;;;;;;-0.01;63.67;90939.72;5024029;28;20117;-53
2024/01/02 03:26:34;;;;;;;0.68;0.30;;;;;;;-0.02;63.41;90925.22;5014149;28;20025;-53
2024/01/02 03:28:59;;;;;;;0.85;0.28;;;;;;;-0.07;63.73;90931.34;5022639;28;20476;-53
2024/01/02 03:31:25;;;;;;;0.85;0.20;;;;;;;-0.07;63.23;90918.38;5022576;28;20021;-53
2024/01/02 03:33:50;;;;;;;0.25;0.10;;;;;;;-0.08;62.47;90918.69;5022605;28;20559;-53
2024/01/02 03:36:18;;;;;;;0.80;0.20;;;;;;;-0.01;62.79;90913.72;5017681;28;20079;-53
2024/01/02 03:38:45;;;;;;;0.70;0.20;;;;;;;-0.01;62.36;90904.09;5021355;28;20033;-53
2024/01/02 03:41:10;;;;;;;0.10;0.10;;;;;;;-0.01;62.82;90901.47;5027301;28;20087;-53
2024/01/02 03:43:36;;;;;;;0.50;0.20;;;;;;;0.05;63.24;90883.09;5016222;28;20116;-53
2024/01/02 03:46:02;;;;;;;0.80;0.25;;;;;;;-0.02;63.51;90889.56;5005240;28;20022;-53
2024/01/02 03:48:27;;;;;;;1.70;0.30;;;;;;;-0.06;64.54;90891.31;5030934;28;20471;-53
2024/01/02 03:50:53;;;;;;;1.13;0.50;;;;;;;-0.05;63.73;90894.66;5026212;28;20026;-53
2024/01/02 03:53:18;;;;;;;0.60;0.30;;;;;;;-0.04;62.91;90889.13;5000616;28;20483;-53
2024/01/02 03:55:44;;;;;;;0.52;0.28;;;;;;;-0.06;63.01;90880.91;5026929;28;20029;-53
2024/01/02 03:58:09;;;;;;;1.42;0.40;;;;;;;-0.08;62.55;90877.88;5012211;28;20041;-53
2024/01/02 04:00:35;;;;;;;0.40;0.10;;;;;;;-0.03;63.18;90887.28;5004194;28;20010;-53
2024/01/02 04:03:01;;;;;;;101.75;40.10;;;;;;;0.06;63.77;90884.59;5009248;28;20038;-56
2024/01/02 04:05:28;;;;;;;2.90;1.55;;;;;;;0.19;62.69;90879.13;4997856;28;20022;-53
2024/01/02 04:07:53;;;;;;;0.30;0.20;;;;;;;0.12;62.13;90867.72;5012382;28;20450;-53
2024/01/02 04:10:19;;;;;;;1.52;0.20;;;;;;;0.18;60.93;90872.41;5013540;28;20422;-53
2024/01/02 04:12:44;;;;;;;0.35;0.15;;;;;;;0.25;60.45;90856.28;5007603;28;20065;-53
2024/01/02 04:15:10;;;;;;;0.32;0.10;;;;;;;0.27;61.97;90855.94;4993020;28;20041;-53
2024/01/02 04:17:35;;;;;;;0.13;0.05;;;;;;;0.14;61.78;90852.56;5004491;28;20414;-53
2024/01/02 04:20:01;;;;;;;0.55;0.20;;;;;;;0.16;61.09;90860.81;5002206;28;20037;-53
2024/01/02 04:22:26;;;;;;;0.30;0.20;;;;;;;0.27;61.37;90861.16;5003095;28;20422;-53
2024/01/02 04:24:52;;;;;;;0.50;0.30;;;;;;;0.33;62.65;90852.84;5014366;28;20017;-61
2024/01/02 04:27:17;;;;;;;139.50;66.93;;;;;;;0.49;64.18;90832.13;5011341;28;20608;-58
2024/01/02 04:29:43;;;;;;;15.38;4.57;;;;;;;0.47;64.15;90852.50;5013578;28;20068;-53
2024/01/02 04:32:08;;;;;;;1.27;0.30;;;;;;;0.48;59.43;90833.19;5004841;28;20117;-53
2024/01/02 04:34:34;;;;;;;0.80;0.20;;;;;;;0.49;59.82;90834.75;5015835;28;20038;-53
2024/01/02 04:37:00;;;;;;;0.77;0.20;;;;;;;0.63;59.51;90818.78;5012105;28;20038;-53
2024/01/02 04:39:25;;;;;;;1.33;0.30;;;;;;;0.76;59.96;90817.72;5012230;28;20034;-53
2024/01/02 04:41:52;;;;;;;1.38;0.20;;;;;;;0.82;61.83;90805.25;5016863;28;20035;-53
2024/01/02 04:44:18;;;;;;;2.75;0.10;;;;;;;1.10;61.81;90798.25;5013418;28;20116;-53
2024/01/02 04:46:43;;;;;;;0.17;0.00;;;;;;;1.74;59.43;90783.56;5009989;28;20113;-53
2024/01/02 04:49:09;;;;;;;0.00;0.00;;;;;;;2.42;57.95;90771.44;5004262;28;20077;-54
2024/01/02 04:51:34;;;;;;;0.00;0.00;;;;;;;3.04;56.90;90764.59;5020341;28;20030;-53
2024/01/02 04:54:00;;;;;;;68.13;28.95;;;;;;;3.48;55.38;90756.47;5004246;28;20026;-56
2024/01/02 04:56:25;;;;;;;2.53;1.40;;;;;;;3.86;54.35;90755.69;5007548;28;20025;-52
2024/01/02 04:58:51;;;;;;;6.90;1.85;;;;;;;3.92;54.47;90753.56;5005784;28;20038;-53
2024/01/02 05:01:17;;;;;;;0.47;0.10;;;;;;;3.96;53.87;90743.88;5012721;28;20118;-53
2024/01/02 05:03:43;;;;;;;0.47;0.00;;;;;;;4.07;52.90;90739.59;5005918;28;20030;-52
2024/01/02 05:06:08;;;;;;;0.32;0.00;;;;;;;4.30;50.79;90738.84;5015159;28;20034;-52
2024/01/02 05:08:34;;;;;;;0.10;0.08;;;;;;;4.58;49.19;90733.28;4995694;28;20030;-53
2024/01/02 05:11:00;;;;;;;0.00;0.00;;;;;;;4.76;49.05;90741.41;5003349;28;20088;-53
2024/01/02 05:13:25;;;;;;;0.00;0.00;;;;;;;4.89;47.99;90731.47;5002032;28;20037;-53
2024/01/02 05:15:51;;;;;;;57.40;26.92;;;;;;;5.01;47.43;90732.00;5004844;28;20030;-50
2024/01/02 05:18:16;;;;;;;6.10;2.35;;;;;;;5.29;46.51;90730.84;4998646;28;20040;-53
2024/01/02 05:20:42;;;;;;;0.25;0.00;;;;;;;5.28;45.94;90730.09;5004222;28;20026;-53
2024/01/02 05:23:07;;;;;;;0.03;0.00;;;;;;;5.29;46.00;90720.38;4996549;28;20123;-52
2024/01/02 05:25:33;;;;;;;0.00;0.00;;;;;;;5.36;46.27;90727.59;5005229;28;20495;-53
2024/01/02 05:27:59;;;;;;;0.15;0.00;;;;;;;5.37;46.38;90723.84;5003744;28;20383;-53
2024/01/02 05:30:25;;;;;;;0.00;0.00;;;;;;;5.43;46.96;90717.91;4999169;28;20392;-53
2024/01/02 05:32:51;;;;;;;0.40;0.05;;;;;;;5.48;47.02;90725.47;4999256;28;20037;-53
2024/01/02 05:35:17;;;;;;;0.08;0.00;;;;;;;5.53;47.11;90715.78;5007059;28;20033;-53
2024/01/02 05:37:42;;;;;;;0.10;0.00;;;;;;;5.53;46.93;90703.41;5000378;28;20030;-53
2024/01/02 05:40:09;;;;;;;0.43;0.03;;;;;;;5.54;46.68;90712.81;4997486;28;20057;-53
2024/01/02 05:42:35;;;;;;;0.32;0.00;;;;;;;5.49;46.98;90706.00;4995699;28;20073;-52
2024/01/02 05:45:01;;;;;;;19.45;10.00;;;;;;;5.63;47.27;90699.41;5007439;28;20112;-51
2024/01/02 05:47:26;;;;;;;2.28;0.73;;;;;;;5.62;46.09;90695.25;5007636;28;20030;-53
2024/01/02 05:49:52;;;;;;;1.52;0.50;;;;;;;5.57;46.08;90708.72;5000219;28;20057;-53
2024/01/02 05:52:17;;;;;;;0.75;0.20;;;;;;;5.61;46.71;90693.75;5007083;28;20064;-53
2024/01/02 05:54:43;;;;;;;1.20;0.70;;;;;;;5.65;47.38;90697.91;5012990;28;20033;-53
2024/01/02 05:57:10;;;;;;;11.77;6.25;;;;;;;5.68;47.03;90683.31;5011164;28;20038;-52
2024/01/02 05:59:36;;;;;;;1.00;0.43;;;;;;;5.73;46.67;90689.00;5000199;28;20137;-53
2024/01/02 06:02:01;;;;;;;0.22;0.20;;;;;;;5.76;46.11;90678.91;5000890;28;20120;-53
2024/01/02 06:04:27;;;;;;;0.13;0.13;;;;;;;5.77;45.40;90675.91;5008069;28;20117;-53
2024/01/02 06:06:52;;;;;;;0.30;0.13;;;;;;;5.78;45.81;90668.81;5010111;28;20104;-53
2024/01/02 06:09:18;;;;;;;0.63;0.40;;;;;;;5.76;45.41;90671.03;5011335;28;20298;-53
2024/01/02 06:11:43;;;;;;;1.00;0.32;;;;;;;5.75;45.43;90672.91;5022148;28;20106;-53
2024/01/02 06:14:11;;;;;;;0.93;0.20;;;;;;;5.67;45.56;90671.34;5021884;28;20029;-53
2024/01/02 06:16:37;;;;;;;0.25;0.10;;;;;;;5.61;45.21;90672.78;5017070;28;20072;-53
2024/01/02 06:19:03;;;;;;;0.28;0.10;;;;;;;5.50;45.98;90665.56;5010810;28;20117;-53
2024/01/02 06:21:29;;;;;;;0.55;0.22;;;;;;;5.41;45.71;90665.06;5026211;28;20024;-53
2024/01/02 06:23:54;;;;;;;1.52;0.70;;;;;;;5.25;46.09;90662.66;5015926;28;20037;-53
2024/01/02 06:26:20;;;;;;;1.42;0.80;;;;;;;5.15;46.39;90652.81;5020763;28;20034;-53
2024/01/02 06:28:45;;;;;;;0.52;0.20;;;;;;;5.12;47.72;90637.06;5014979;28;20030;-53
2024/01/02 06:31:11;;;;;;;0.38;0.13;;;;;;;5.10;46.84;90631.41;5011262;28;20038;-53
2024/01/02 06:33:36;;;;;;;0.93;0.20;;;;;;;5.03;46.04;90627.59;5017475;28;20087;-53
2024/01/02 06:36:02;;;;;;;0.20;0.10;;;;;;;5.03;46.57;90637.31;5008162;28;20026;-53
2024/01/02 06:38:28;;;;;;;1.35;0.55;;;;;;;5.04;47.21;90644.06;5005306;28;20038;-53
2024/01/02 06:40:54;;;;;;;0.25;0.10;;;;;;;4.99;46.99;90632.06;5031004;28;20035;-53
2024/01/02 06:43:19;;;;;;;0.93;0.15;;;;;;;4.93;47.14;90643.19;5021642;28;20133;-53
2024/01/02 06:45:45;;;;;;;0.40;0.10;;;;;;;4.92;46.10;90634.56;5020636;28;20389;-53
2024/01/02 06:48:10;;;;;;;0.55;0.28;;;;;;;4.87;44.95;90634.88;5018766;28;20553;-53
2024/01/02 06:50:36;;;;;;;0.98;0.30;;;;;;;4.82;45.08;90629.97;5019310;28;20096;-53
2024/01/02 06:53:02;;;;;;;0.35;0.20;;;;;;;4.82;44.79;90629.97;5010922;28;20076;-53
2024/01/02 06:55:27;;;;;;;0.25;0.10;;;;;;;4.80;44.74;90625.06;5010721;28;20048;-53
2024/01/02 06:57:53;;;;;;;0.32;0.10;;;;;;;4.76;44.95;90626.16;5015831;28;20029;-53
2024/01/02 07:00:19;;;;;;;0.38;0.10;;;;;;;4.71;45.08;90629.81;5010897;28;20105;-53
2024/01/02 07:02:44;;;;;;;0.40;0.20;;;;;;;4.68;46.09;90622.69;5014950;28;20076;-53
2024/01/02 07:05:14;;;;;;;0.20;0.10;;;;;;;4.63;45.96;90622.97;5022347;28;20474;-53
2024/01/02 07:07:40;;;;;;;0.93;0.10;;;;;;;4.61;45.86;90622.59;5015839;28;20034;-53
2024/01/02 07:10:06;;;;;;;0.10;0.00;;;;;;;4.59;46.37;90616.94;5019088;28;20073;-53
2024/01/02 07:12:32;;;;;;;0.10;0.10;;;;;;;4.60;45.50;90623.69;5021433;28;20053;-53
2024/01/02 07:14:57;;;;;;;0.38;0.20;;;;;;;4.55;45.95;90627.38;5024997;28;20062;-53
2024/01/02 07:17:23;;;;;;;0.00;0.00;;;;;;;4.56;45.41;90620.28;5013364;28;20033;-53
2024/01/02 07:19:50;;;;;;;0.38;0.25;;;;;;;4.53;45.49;90634.84;5017988;28;20033;-53
2024/01/02 07:22:15;;;;;;;0.20;0.10;;;;;;;4.49;44.51;90628.06;5019827;28;20034;-53
2024/01/02 07:24:41;;;;;;;0.40;0.10;;;;;;;4.48;44.67;90621.28;5010778;28;20030;-52
2024/01/02 07:27:07;;;;;;;0.32;0.10;;;;;;;4.49;44.33;90622.81;5012401;28;20414;-53
2024/01/02 07:29:32;;;;;;;0.13;0.10;;;;;;;4.50;43.92;90627.69;5027007;28;20045;-53
2024/01/02 07:31:58;;;;;;;1.35;0.52;;;;;;;4.50;43.15;90617.22;5018878;28;20036;-53
2024/01/02 07:34:24;;;;;;;0.75;0.20;;;;;;;4.56;42.57;90600.09;5019490;28;20041;-53
2024/01/02 07:36:50;;;;;;;1.83;0.60;;;;;;;4.66;42.33;90603.94;5019488;28;20036;-53
2024/01/02 07:39:15;;;;;;;0.82;0.25;;;;;;;4.76;42.89;90602.56;5018572;28;20116;-53
2024/01/02 07:41:41;;;;;;;1.75;0.43;;;;;;;4.84;43.46;90595.53;5022053;28;20041;-53
2024/01/02 07:44:07;;;;;;;4.90;1.50;;;;;;;4.88;43.44;90597.09;5015125;28;20423;-53
2024/01/02 07:46:33;;;;;;;3.40;1.02;;;;;;;4.87;43.96;90597.44;5020298;28;20545;-53
2024/01/02 07:48:58;;;;;;;3.55;0.10;;;;;;;4.95;43.48;90601.66;5016388;28;20504;-53
2024/01/02 07:51:24;;;;;;;0.45;0.20;;;;;;;4.97;43.76;90615.19;5033598;28;20025;-53
2024/01/02 07:53:49;;;;;;;0.22;0.10;;;;;;;4.98;43.66;90614.81;5032483;28;20505;-53
2024/01/02 07:56:19;;;;;;;0.20;0.10;;;;;;;4.96;43.55;90611.03;5027843;28;20041;-53
2024/01/02 07:58:46;;;;;;;0.55;0.20;;;;;;;4.98;43.10;90619.28;5027501;28;20029;-53
2024/01/02 08:01:13;;;;;;;0.52;0.17;;;;;;;4.99;43.55;90618.19;5014024;28;20387;-53
2024/01/02 08:03:39;;;;;;;0.60;0.30;;;;;;;4.98;43.17;90614.81;5024404;28;20454;-53
2024/01/02 08:06:04;;;;;;;0.22;0.13;;;;;;;5.02;43.30;90607.75;5018081;28;20034;-53
2024/01/02 08:08:30;;;;;;;0.25;0.17;;;;;;;5.07;42.88;90605.91;5028893;28;20100;-53
2024/01/02 08:10:56;;;;;;;0.08;0.00;;;;;;;5.11;42.25;90617.94;5033654;28;20326;-53
2024/01/02 08:13:21;;;;;;;5.57;0.17;;;;;;;5.11;42.23;90610.06;5025259;28;20091;-53
2024/01/02 08:15:47;;;;;;;0.50;0.17;;;;;;;5.08;42.18;90597.69;5021276;28;20041;-53
2024/01/02 08:18:12;;;;;;;0.68;0.13;;;;;;;5.13;42.35;90612.34;5013574;28;20117;-53
2024/01/02 08:20:38;;;;;;;0.20;0.20;;;;;;;5.11;42.34;90612.69;5021518;28;20040;-53
2024/01/02 08:23:04;;;;;;;0.43;0.25;;;;;;;5.13;43.26;90607.09;5018836;28;20113;-53
2024/01/02 08:25:29;;;;;;;0.28;0.10;;;;;;;5.13;43.53;90604.47;5023717;28;20033;-53
2024/01/02 08:27:55;;;;;;;0.20;0.08;;;;;;;5.19;43.72;90618.78;5010902;28;20033;-53
2024/01/02 08:30:20;;;;;;;2.88;0.20;;;;;;;5.21;43.79;90633.03;5014734;28;20046;-53
2024/01/02 08:32:46;;;;;;;0.08;0.00;;;;;;;5.26;44.14;90624.09;5032582;28;20094;-53
2024/01/02 08:35:11;;;;;;;0.10;0.10;;;;;;;5.23;45.22;90627.41;5024851;28;20090;-53
2024/01/02 08:37:37;;;;;;;0.40;0.05;;;;;;;5.25;45.46;90625.97;5019954;28;20026;-53
2024/01/02 08:40:03;;;;;;;0.15;0.10;;;;;;;5.32;46.21;90632.38;5026761;28;20057;-53
2024/01/02 08:42:28;;;;;;;0.95;0.10;;;;;;;5.34;46.25;90633.53;5023957;28;20375;-53
2024/01/02 08:44:54;;;;;;;0.32;0.10;;;;;;;5.36;46.21;90627.94;5018946;28;20179;-53
2024/01/02 08:47:19;;;;;;;0.15;0.05;;;;;;;5.41;46.45;90630.97;5020324;28;20037;-53
2024/01/02 08:49:46;;;;;;;0.30;0.10;;;;;;;5.46;46.73;90622.03;5029169;28;20049;-53
2024/01/02 08:52:13;;;;;;;0.73;0.40;;;;;;;5.57;47.49;90635.28;5013034;28;20030;-53
2024/01/02 08:54:38;;;;;;;1.67;0.30;;;;;;;5.63;47.17;90628.59;5022754;28;20429;-53
2024/01/02 08:57:04;;;;;;;0.40;0.30;;;;;;;5.71;47.82;90636.13;5018520;28;20037;-53
2024/01/02 08:59:29;;;;;;;0.50;0.20;;;;;;;5.78;48.39;90638.09;5013331;28;20403;-53
2024/01/02 09:01:55;;;;;;;0.60;0.50;;;;;;;5.90;48.01;90645.69;5024448;28;20394;-53
2024/01/02 09:04:23;;;;;;;0.88;0.50;;;;;;;5.94;47.98;90646.50;5032643;28;20029;-53
2024/01/02 09:06:48;;;;;;;2.30;1.13;;;;;;;6.03;50.30;90650.69;5022902;28;20486;-53
2024/01/02 09:09:15;;;;;;;5.00;2.47;;;;;;;6.13;50.49;90648.13;5012616;28;20026;-53
2024/01/02 09:11:41;;;;;;;0.52;0.43;;;;;;;6.20;51.17;90631.69;5012449;28;20026;-52
2024/01/02 09:14:06;;;;;;;1.77;0.70;;;;;;;6.28;51.22;90646.38;5026065;28;20383;-52
2024/01/02 09:16:33;;;;;;;2.00;1.00;;;;;;;6.36;52.19;90632.19;5015422;28;20034;-52
2024/01/02 09:18:58;;;;;;;0.50;0.20;;;;;;;6.39;52.85;90651.72;5029799;28;20025;-52
2024/01/02 09:21:24;;;;;;;0.20;0.10;;;;;;;6.44;52.18;90640.88;5023995;28;20033;-53
2024/01/02 09:23:50;;;;;;;0.75;0.40;;;;;;;6.49;52.92;90643.13;5024108;28;20041;-53
2024/01/02 09:26:19;;;;;;;0.57;0.30;;;;;;;6.49;53.10;90645.75;5016669;28;20037;-53
2024/01/02 09:28:45;;;;;;;0.52;0.25;;;;;;;6.51;53.84;90654.03;5020474;28;20040;-53
2024/01/02 09:31:12;;;;;;;0.20;0.13;;;;;;;6.53;53.14;90638.69;5017848;28;20030;-53
2024/01/02 09:33:38;;;;;;;1.42;0.60;;;;;;;6.55;53.55;90661.94;5010730;28;20491;-53
2024/01/02 09:36:07;;;;;;;2.28;0.55;;;;;;;6.58;53.30;90663.84;5020106;28;20080;-53
2024/01/02 09:38:33;;;;;;;6.03;2.05;;;;;;;6.53;53.22;90643.16;5016632;28;20095;-53
2024/01/02 09:41:09;;;;;;;4.28;1.63;;;;;;;6.50;53.60;90657.78;5023440;28;20387;-53
2024/01/02 09:43:50;;;;;;;10.88;3.80;;;;;;;6.53;54.24;90645.78;5031483;28;20581;-52
2024/01/02 09:46:27;;;;;;;4.32;1.50;;;;;;;6.56;55.58;90656.34;5016956;28;20040;-53
2024/01/02 09:49:11;;;;;;;1.75;0.20;;;;;;;6.57;57.64;90646.56;5011675;28;20032;-53
2024/01/02 09:51:51;;;;;;;0.43;0.10;;;;;;;6.62;57.74;90657.50;5021109;28;20517;-53
2024/01/02 09:54:16;;;;;;;0.47;0.08;;;;;;;6.64;58.38;90657.88;5023367;28;20040;-52
2024/01/02 09:56:44;;;;;;;0.43;0.20;;;;;;;6.62;58.83;90654.13;5021275;28;20034;-53
2024/01/02 09:59:13;;;;;;;0.32;0.10;;;;;;;6.65;58.18;90653.38;5021151;28;20033;-53
2024/01/02 10:01:47;;;;;;;0.20;0.20;;;;;;;6.66;58.51;90654.88;5021959;28;20175;-53
2024/01/02 10:05:01;;;;;;;0.20;0.13;;;;;;;6.67;58.42;90650.38;5016199;28;20072;-53
2024/01/02 10:07:56;;;;;;;0.20;0.10;;;;;;;6.68;58.94;90647.41;5017594;28;20198;-53
2024/01/02 10:10:27;;;;;;;0.43;0.10;;;;;;;6.66;59.95;90651.50;5008845;28;20045;-53
2024/01/02 10:12:59;;;;;;;1.25;0.15;;;;;;;6.70;60.83;90647.75;5021887;28;20410;-53
2024/01/02 10:15:31;;;;;;;0.20;0.10;;;;;;;6.77;61.42;90639.16;5022914;28;20037;-53
2024/01/02 10:18:09;;;;;;;0.03;0.03;;;;;;;6.76;60.46;90627.16;5012278;28;20109;-53
2024/01/02 10:21:02;;;;;;;0.43;0.13;;;;;;;6.80;60.77;90639.19;5022841;28;20041;-53
2024/01/02 10:23:54;;;;;;;0.00;0.00;;;;;;;6.82;60.39;90617.78;5016982;28;20041;-52
2024/01/02 10:26:22;;;;;;;0.20;0.10;;;;;;;6.85;59.17;90625.69;5016026;28;20022;-53
2024/01/02 10:28:49;;;;;;;0.00;0.00;;;;;;;6.93;59.38;90631.75;5018836;28;20546;-53
2024/01/02 10:32:00;;;;;;;0.05;0.05;;;;;;;6.98;58.93;90630.63;5007445;28;20473;-53
2024/01/02 10:34:39;;;;;;;;;;;;;;;7.02;58.08;90618.28;5010320;28;20053;-53
2024/01/02 10:37:06;;;;;;;0.25;0.10;;;;;;;7.07;58.04;90617.94;5011066;28;19921;-53
2024/01/02 10:39:44;;;;;;;0.60;0.20;;;;;;;7.12;56.87;90620.19;5026107;28;20112;-53
2024/01/02 10:42:51;;;;;;;0.15;0.10;;;;;;;7.20;57.36;90623.59;5016664;28;20105;-53
2024/01/02 10:45:35;;;;;;;0.85;0.10;;;;;;;7.17;56.08;90613.81;5054136;28;20397;-53
2024/01/02 10:48:06;;;;;;;0.30;0.10;;;;;;;7.21;56.07;90617.19;5010493;28;20049;-53
2024/01/02 10:50:41;;;;;;;0.40;0.10;;;;;;;7.23;55.60;90614.97;5019558;28;20049;-53
2024/01/02 10:53:36;;;;;;;0.68;0.20;;;;;;;7.24;55.38;90611.19;5018413;28;20036;-53
2024/01/02 10:56:37;;;;;;;0.75;0.30;;;;;;;7.28;55.99;90609.31;5017732;28;20553;-53
2024/01/02 10:59:26;;;;;;;0.43;0.20;;;;;;;7.24;56.02;90609.31;5005262;28;20043;-53
2024/01/02 11:02:12;;;;;;;0.25;0.20;;;;;;;7.26;56.40;90603.69;5013115;28;20113;-53
2024/01/02 11:04:56;;;;;;;0.10;0.03;;;;;;;7.27;56.49;90602.56;5022547;28;20390;-53
2024/01/02 11:07:28;;;;;;;0.20;0.10;;;;;;;7.40;56.76;90600.34;5017447;28;20042;-53
2024/01/02 11:10:03;;;;;;;0.00;0.00;;;;;;;7.47;56.33;90587.22;5020307;28;20394;-53
2024/01/02 11:12:36;;;;;;;1.00;0.30;;;;;;;7.45;55.52;90584.19;5022157;28;20045;-53
2024/01/02 11:15:03;;;;;;;0.68;0.20;;;;;;;7.46;55.75;90585.69;5021246;28;20033;-53
2024/01/02 11:17:29;;;;;;;0.82;0.38;;;;;;;7.46;56.60;90581.22;5006339;28;20037;-53
2024/01/02 11:20:03;;;;;;;0.10;0.10;;;;;;;7.40;55.43;90574.81;5027512;28;20030;-53
2024/01/02 11:22:35;;;;;;;0.75;0.20;;;;;;;7.28;54.67;90569.88;5029257;28;20042;-53
2024/01/02 11:25:03;;;;;;;0.65;0.15;;;;;;;7.22;55.49;90566.88;5029602;28;20522;-53
2024/01/02 11:27:30;;;;;;;0.73;0.10;;;;;;;7.26;54.11;90569.50;5016924;28;20083;-53
2024/01/02 11:29:56;;;;;;;0.22;0.13;;;;;;;7.24;53.44;90559.34;5020892;28;20054;-52
2024/01/02 11:32:57;;;;;;;0.20;0.10;;;;;;;7.17;52.63;90563.84;5022755;28;20205;-53
2024/01/02 11:35:24;;;;;;;0.60;0.30;;;;;;;7.15;52.58;90560.84;5016657;28;20461;-53
2024/01/02 11:38:02;;;;;;;0.50;0.40;;;;;;;7.13;52.74;90553.34;5016466;28;20037;-53
2024/01/02 11:40:56;;;;;;;0.20;0.10;;;;;;;7.08;52.32;90536.03;5024883;28;20040;-53
2024/01/02 11:43:32;;;;;;;0.90;0.20;;;;;;;7.09;51.79;90527.00;5022639;28;20171;-53